createdAt,value
2023-02-07T00:01:31.783Z,3.93
2023-02-07T00:03:59.617Z,2.90
2023-02-07T00:06:28.715Z,2.88
2023-02-07T00:08:56.107Z,2.90
2023-02-07T00:11:23.849Z,3.28
2023-02-07T00:13:52.108Z,4.30
2023-02-07T00:16:20.996Z,4.18
2023-02-07T00:18:48.626Z,3.65
2023-02-07T00:21:17.600Z,3.83
2023-02-07T00:23:45.075Z,3.33
2023-02-07T00:26:12.641Z,3.30
2023-02-07T00:28:40.074Z,3.25
2023-02-07T00:31:08.581Z,3.90
2023-02-07T00:33:38.344Z,5.50
2023-02-07T00:36:07.105Z,3.88
2023-02-07T00:38:34.504Z,3.90
2023-02-07T00:41:02.304Z,3.60
2023-02-07T00:43:30.299Z,4.30
2023-02-07T00:45:59.403Z,4.93
2023-02-07T00:48:27.223Z,4.20
2023-02-07T00:50:55.966Z,4.13
2023-02-07T00:53:23.358Z,3.72
2023-02-07T00:55:50.771Z,3.90
2023-02-07T00:58:18.287Z,4.40
2023-02-07T01:00:45.699Z,4.30
2023-02-07T01:03:13.127Z,4.05
2023-02-07T01:05:40.567Z,3.22
2023-02-07T01:08:09.311Z,4.13
2023-02-07T01:10:36.885Z,4.38
2023-02-07T01:13:04.282Z,3.92
2023-02-07T01:15:31.677Z,3.45
2023-02-07T01:17:59.100Z,3.90
2023-02-07T01:20:26.484Z,4.13
2023-02-07T01:22:53.873Z,3.65
2023-02-07T01:25:22.573Z,5.05
2023-02-07T01:27:49.974Z,4.55
2023-02-07T01:30:17.555Z,4.13
2023-02-07T01:32:44.961Z,3.55
2023-02-07T01:35:12.346Z,3.35
2023-02-07T01:37:39.731Z,3.40
2023-02-07T01:40:08.165Z,3.58
2023-02-07T01:42:36.875Z,3.20
2023-02-07T01:45:17.070Z,3.05
2023-02-07T01:50:11.700Z,3.88
2023-02-07T01:52:40.455Z,3.50
2023-02-07T01:55:09.355Z,3.03
2023-02-07T01:57:38.076Z,2.95
2023-02-07T02:00:06.266Z,2.97
2023-02-07T02:02:34.997Z,3.35
2023-02-07T02:05:02.399Z,3.53
2023-02-07T02:07:29.828Z,2.95
2023-02-07T02:09:57.204Z,2.75
2023-02-07T02:12:42.131Z,3.10
2023-02-07T02:15:15.741Z,3.03
2023-02-07T02:17:54.496Z,2.58
2023-02-07T02:20:42.234Z,3.65
2023-02-07T02:23:16.166Z,3.03
2023-02-07T02:25:56.477Z,2.50
2023-02-07T02:28:36.682Z,2.67
2023-02-07T02:33:43.011Z,2.58
2023-02-07T02:36:13.650Z,3.05
2023-02-07T02:38:46.631Z,2.53
2023-02-07T02:41:15.634Z,3.35
2023-02-07T02:43:44.339Z,2.10
2023-02-07T02:46:13.429Z,2.20
2023-02-07T02:48:42.939Z,2.97
2023-02-07T02:51:10.349Z,2.50
2023-02-07T02:53:37.753Z,2.80
2023-02-07T02:56:15.226Z,2.65
2023-02-07T02:59:03.298Z,2.45
2023-02-07T03:01:35.892Z,2.50
2023-02-07T03:04:10.920Z,2.60
2023-02-07T03:06:44.064Z,3.58
2023-02-07T03:09:17.670Z,2.50
2023-02-07T03:11:50.050Z,2.90
2023-02-07T03:14:20.910Z,4.15
2023-02-07T03:16:50.498Z,3.78
2023-02-07T03:19:20.755Z,3.03
2023-02-07T03:24:17.287Z,2.92
2023-02-07T03:26:45.523Z,3.15
2023-02-07T03:29:12.902Z,3.35
2023-02-07T03:31:42.297Z,3.40
2023-02-07T03:34:11.752Z,3.22
2023-02-07T03:36:41.923Z,2.90
2023-02-07T03:41:39.104Z,3.65
2023-02-07T03:44:07.129Z,3.90
2023-02-07T03:46:36.433Z,2.83
2023-02-07T03:49:04.079Z,2.70
2023-02-07T03:51:31.441Z,3.28
2023-02-07T03:54:00.151Z,3.00
2023-02-07T03:56:27.577Z,3.05
2023-02-07T03:58:54.990Z,2.97
2023-02-07T04:01:22.417Z,2.97
2023-02-07T04:03:49.866Z,3.15
2023-02-07T04:06:17.410Z,3.08
2023-02-07T04:08:44.789Z,3.05
2023-02-07T04:11:13.475Z,3.45
2023-02-07T04:13:40.880Z,2.80
2023-02-07T04:16:08.375Z,3.03
2023-02-07T04:18:35.784Z,3.63
2023-02-07T04:21:03.235Z,3.65
2023-02-07T04:23:30.663Z,3.47
2023-02-07T04:25:58.214Z,3.70
2023-02-07T04:28:26.920Z,3.92
2023-02-07T04:30:54.342Z,3.88
2023-02-07T04:33:21.845Z,3.60
2023-02-07T04:35:54.995Z,4.18
2023-02-07T04:38:22.399Z,4.88
2023-02-07T04:40:49.783Z,4.03
2023-02-07T04:43:17.204Z,3.97
2023-02-07T04:45:46.732Z,3.78
2023-02-07T04:48:14.112Z,4.05
2023-02-07T04:50:41.622Z,3.80
2023-02-07T04:53:09.020Z,3.20
2023-02-07T04:55:37.333Z,3.65
2023-02-07T04:58:04.949Z,3.55
2023-02-07T05:00:32.353Z,3.92
2023-02-07T05:03:01.057Z,4.47
2023-02-07T05:05:28.430Z,4.25
2023-02-07T05:07:55.814Z,4.43
2023-02-07T05:10:23.181Z,4.57
2023-02-07T05:12:50.543Z,3.55
2023-02-07T05:15:18.064Z,3.75
2023-02-07T05:17:45.919Z,3.88
2023-02-07T05:20:14.680Z,5.15
2023-02-07T05:22:42.090Z,3.53
2023-02-07T05:25:09.459Z,4.47
2023-02-07T05:27:36.820Z,4.30
2023-02-07T05:30:04.502Z,4.00
2023-02-07T05:32:49.460Z,4.47
2023-02-07T05:35:18.149Z,3.85
2023-02-07T05:37:45.505Z,4.55
2023-02-07T05:40:13.845Z,4.45
2023-02-07T05:42:41.225Z,4.47
2023-02-07T05:45:09.054Z,4.47
2023-02-07T05:47:36.409Z,4.80
2023-02-07T05:50:03.953Z,4.28
2023-02-07T05:52:35.569Z,4.20
2023-02-07T05:55:03.111Z,4.47
2023-02-07T05:57:30.479Z,4.88
2023-02-07T05:59:58.057Z,4.80
2023-02-07T06:02:25.607Z,4.85
2023-02-07T06:04:53.010Z,6.18
2023-02-07T06:07:20.400Z,4.68
2023-02-07T06:09:49.078Z,4.47
2023-02-07T06:12:16.440Z,4.35
2023-02-07T06:14:43.805Z,5.00
2023-02-07T06:17:11.174Z,4.18
2023-02-07T06:19:38.544Z,5.53
2023-02-07T06:22:05.979Z,4.72
2023-02-07T06:24:33.342Z,5.32
2023-02-07T06:27:02.007Z,5.20
2023-02-07T06:29:29.422Z,4.82
2023-02-07T06:31:56.796Z,6.15
2023-02-07T06:34:24.362Z,6.22
2023-02-07T06:36:51.751Z,5.10
2023-02-07T06:39:19.130Z,5.50
2023-02-07T06:41:46.499Z,5.13
2023-02-07T06:44:15.396Z,6.38
2023-02-07T06:46:42.759Z,5.35
2023-02-07T06:49:11.358Z,5.65
2023-02-07T06:51:38.716Z,10.63
2023-02-07T06:54:09.726Z,10.95
2023-02-07T06:56:37.253Z,4.63
2023-02-07T06:59:04.624Z,7.00
2023-02-07T07:01:33.349Z,7.97
2023-02-07T07:04:00.739Z,6.20
2023-02-07T07:06:28.113Z,5.63
2023-02-07T07:08:55.513Z,4.97
2023-02-07T07:11:23.426Z,6.43
2023-02-07T07:13:50.817Z,8.57
2023-02-07T07:16:18.202Z,8.90
2023-02-07T07:18:46.922Z,6.65
2023-02-07T07:21:14.280Z,8.52
2023-02-07T07:23:41.646Z,7.78
2023-02-07T07:26:09.004Z,9.45
2023-02-07T07:28:36.372Z,6.43
2023-02-07T07:31:05.132Z,8.07
2023-02-07T07:33:32.562Z,6.07
2023-02-07T07:36:01.512Z,7.30
2023-02-07T07:38:29.105Z,6.95
2023-02-07T07:40:56.501Z,8.45
2023-02-07T07:43:23.917Z,5.75
2023-02-07T07:45:52.903Z,9.02
2023-02-07T07:48:20.536Z,6.15
2023-02-07T07:50:47.968Z,7.25
2023-02-07T07:53:17.349Z,7.30
2023-02-07T07:55:48.951Z,8.18
2023-02-07T07:58:16.471Z,7.93
2023-02-07T08:00:43.896Z,7.57
2023-02-07T08:03:12.632Z,8.85
2023-02-07T08:05:40.064Z,8.40
2023-02-07T08:08:07.515Z,8.68
2023-02-07T08:10:36.603Z,10.25
2023-02-07T08:13:04.252Z,8.40
2023-02-07T08:15:31.713Z,9.05
2023-02-07T08:17:59.085Z,10.35
2023-02-07T08:20:26.536Z,10.38
2023-02-07T08:22:54.002Z,11.45
2023-02-07T08:25:21.400Z,13.05
2023-02-07T08:27:50.111Z,10.70
2023-02-07T08:30:18.760Z,13.10
2023-02-07T08:32:46.159Z,9.95
2023-02-07T08:35:13.534Z,9.13
2023-02-07T08:37:40.957Z,8.68
2023-02-07T08:40:09.282Z,9.55
2023-02-07T08:42:36.664Z,8.50
2023-02-07T08:45:05.978Z,8.80
2023-02-07T08:47:33.531Z,9.00
2023-02-07T08:50:00.941Z,9.18
2023-02-07T08:52:29.784Z,8.80
2023-02-07T08:54:57.238Z,7.90
2023-02-07T08:57:25.668Z,8.63
2023-02-07T08:59:53.123Z,9.23
2023-02-07T09:02:21.982Z,8.38
2023-02-07T09:04:49.404Z,8.32
2023-02-07T09:07:16.790Z,14.90
2023-02-07T09:09:44.197Z,11.02
2023-02-07T09:12:11.735Z,8.55
2023-02-07T09:14:39.364Z,9.38
2023-02-07T09:17:07.095Z,11.75
2023-02-07T09:19:35.954Z,13.85
2023-02-07T09:22:03.364Z,18.73
2023-02-07T09:24:30.749Z,23.95
2023-02-07T09:26:58.128Z,36.00
2023-02-07T09:29:25.639Z,35.45
2023-02-07T09:31:53.373Z,43.90
2023-02-07T09:34:20.842Z,40.22
2023-02-07T09:36:50.268Z,43.58
2023-02-07T09:39:17.820Z,43.58
2023-02-07T09:41:50.752Z,40.15
2023-02-07T09:44:20.503Z,29.38
2023-02-07T09:46:50.157Z,34.50
2023-02-07T09:49:24.728Z,29.80
2023-02-07T09:51:53.481Z,25.25
2023-02-07T09:54:24.282Z,27.83
2023-02-07T09:56:51.917Z,29.83
2023-02-07T09:59:23.320Z,26.42
2023-02-07T10:01:52.051Z,22.17
2023-02-07T10:04:30.122Z,25.65
2023-02-07T10:06:59.785Z,24.23
2023-02-07T10:09:31.692Z,21.48
2023-02-07T10:12:02.390Z,23.45
2023-02-07T10:14:51.044Z,22.10
2023-02-07T10:17:35.168Z,18.35
2023-02-07T10:20:17.585Z,16.95
2023-02-07T10:22:49.203Z,19.08
2023-02-07T10:25:22.816Z,20.67
2023-02-07T10:27:55.612Z,17.13
2023-02-07T10:30:25.193Z,16.42
2023-02-07T10:32:52.628Z,19.95
2023-02-07T10:35:21.569Z,15.55
2023-02-07T10:37:51.340Z,16.60
2023-02-07T10:40:21.923Z,14.50
2023-02-07T10:42:51.288Z,15.60
2023-02-07T10:45:19.825Z,13.98
2023-02-07T10:47:47.208Z,14.95
2023-02-07T10:50:24.784Z,27.30
2023-02-07T10:52:57.537Z,48.40
2023-02-07T10:55:35.982Z,47.17
2023-02-07T10:58:17.814Z,32.72
2023-02-07T11:00:48.777Z,44.83
2023-02-07T11:03:16.660Z,42.58
2023-02-07T11:05:55.380Z,45.25
2023-02-07T11:08:26.278Z,44.15
2023-02-07T11:10:54.486Z,40.17
2023-02-07T11:13:22.747Z,32.60
2023-02-07T11:15:52.740Z,26.67
2023-02-07T11:18:37.370Z,29.92
2023-02-07T11:21:09.197Z,33.47
2023-02-07T11:23:37.893Z,26.90
2023-02-07T11:26:05.499Z,20.23
2023-02-07T11:28:33.269Z,19.85
2023-02-07T11:31:03.278Z,27.67
2023-02-07T11:36:02.376Z,18.23
2023-02-07T11:38:30.143Z,16.23
2023-02-07T11:41:03.937Z,15.65
2023-02-07T11:43:31.346Z,14.27
2023-02-07T11:46:00.945Z,12.23
2023-02-07T11:48:30.473Z,12.65
2023-02-07T11:50:58.925Z,12.35
2023-02-07T11:53:27.641Z,13.52
2023-02-07T11:55:55.361Z,11.18
2023-02-07T11:58:25.933Z,36.55
2023-02-07T12:00:53.330Z,19.48
2023-02-07T12:03:23.497Z,18.58
2023-02-07T12:08:22.680Z,13.82
2023-02-07T12:10:50.832Z,18.13
2023-02-07T12:13:19.568Z,13.52
2023-02-07T12:15:50.239Z,13.35
2023-02-07T12:18:21.842Z,10.70
2023-02-07T12:20:51.366Z,16.75
2023-02-07T12:23:41.276Z,10.35
2023-02-07T12:26:14.539Z,10.13
2023-02-07T12:28:44.774Z,11.90
2023-02-07T12:31:16.561Z,10.10
2023-02-07T12:33:47.180Z,8.77
2023-02-07T12:36:16.405Z,8.63
2023-02-07T12:38:46.711Z,8.10
2023-02-07T12:41:15.636Z,8.68
2023-02-07T12:43:45.652Z,11.30
2023-02-07T12:46:23.247Z,9.93
2023-02-07T12:49:00.961Z,15.82
2023-02-07T12:51:32.752Z,8.40
2023-02-07T12:54:08.097Z,5.18
2023-02-07T12:56:43.080Z,7.05
2023-02-07T12:59:18.263Z,6.43
2023-02-07T13:01:48.153Z,7.03
2023-02-07T13:04:31.641Z,7.50
2023-02-07T13:07:07.390Z,7.40
2023-02-07T13:09:37.852Z,6.18
2023-02-07T13:12:08.858Z,5.85
2023-02-07T13:14:40.432Z,6.07
2023-02-07T13:17:22.685Z,5.82
2023-02-07T13:19:53.202Z,6.88
2023-02-07T13:22:31.124Z,5.88
2023-02-07T13:24:58.522Z,6.35
2023-02-07T13:27:25.918Z,6.07
2023-02-07T13:29:53.304Z,6.63
2023-02-07T13:32:23.254Z,9.00
2023-02-07T13:34:52.602Z,6.65
2023-02-07T13:37:19.994Z,4.28
2023-02-07T13:39:49.658Z,6.50
2023-02-07T13:42:21.659Z,7.47
2023-02-07T13:44:52.502Z,5.45
2023-02-07T13:47:36.399Z,4.88
2023-02-07T13:50:06.019Z,5.72
2023-02-07T13:52:35.408Z,5.22
2023-02-07T13:55:06.705Z,4.35
2023-02-07T13:57:59.846Z,6.78
2023-02-07T14:00:27.876Z,6.05
2023-02-07T14:02:57.784Z,3.83
2023-02-07T14:05:27.384Z,6.45
2023-02-07T14:07:59.532Z,4.18
2023-02-07T14:10:37.067Z,4.85
2023-02-07T14:13:04.472Z,4.68
2023-02-07T14:15:54.727Z,4.55
2023-02-07T14:18:40.542Z,5.28
2023-02-07T14:21:25.465Z,3.75
2023-02-07T14:24:02.840Z,3.97
2023-02-07T14:26:52.824Z,5.13
2023-02-07T14:29:42.254Z,4.43
2023-02-07T14:32:28.439Z,5.78
2023-02-07T14:35:01.493Z,3.97
2023-02-07T14:37:39.289Z,5.00
2023-02-07T14:40:08.280Z,4.88
2023-02-07T14:42:35.679Z,4.13
2023-02-07T14:45:03.385Z,4.53
2023-02-07T14:47:31.371Z,3.55
2023-02-07T14:50:00.433Z,3.45
2023-02-07T14:52:29.487Z,3.72
2023-02-07T14:54:58.448Z,4.55
2023-02-07T14:57:30.065Z,3.97
2023-02-07T15:00:00.458Z,3.78
2023-02-07T15:02:32.470Z,3.92
2023-02-07T15:05:16.364Z,4.72
2023-02-07T15:07:46.840Z,5.40
2023-02-07T15:10:15.637Z,4.80
2023-02-07T15:12:43.578Z,6.47
2023-02-07T15:17:43.731Z,4.53
2023-02-07T15:20:15.903Z,4.28
2023-02-07T15:22:43.319Z,4.22
2023-02-07T15:25:13.831Z,3.97
2023-02-07T15:27:41.240Z,3.55
2023-02-07T15:30:15.653Z,5.50
2023-02-07T15:32:43.582Z,3.95
2023-02-07T15:35:17.506Z,4.55
2023-02-07T15:37:46.306Z,5.28
2023-02-07T15:40:15.137Z,4.32
2023-02-07T15:42:50.933Z,6.90
2023-02-07T15:45:24.688Z,5.43
2023-02-07T15:47:57.444Z,3.85
2023-02-07T15:50:27.276Z,3.35
2023-02-07T15:52:55.210Z,4.15
2023-02-07T15:55:25.047Z,4.78
2023-02-07T15:57:53.444Z,6.00
2023-02-07T16:00:22.510Z,4.13
2023-02-07T16:02:55.991Z,4.10
2023-02-07T16:05:24.370Z,4.15
2023-02-07T16:07:54.006Z,3.60
2023-02-07T16:10:33.634Z,3.97
2023-02-07T16:13:01.047Z,4.32
2023-02-07T16:15:29.634Z,5.50
2023-02-07T16:17:57.168Z,3.47
2023-02-07T16:20:24.553Z,5.25
2023-02-07T16:22:53.384Z,4.47
2023-02-07T16:25:21.812Z,3.75
2023-02-07T16:27:50.523Z,3.40
2023-02-07T16:30:19.312Z,3.80
2023-02-07T16:32:47.177Z,3.47
2023-02-07T16:35:22.100Z,3.50
2023-02-07T16:37:49.587Z,4.18
2023-02-07T16:40:18.421Z,4.93
2023-02-07T16:42:45.940Z,3.28
2023-02-07T16:45:18.491Z,3.53
2023-02-07T16:47:45.936Z,4.13
2023-02-07T16:50:18.001Z,3.20
2023-02-07T16:52:45.802Z,3.45
2023-02-07T16:55:13.196Z,4.00
2023-02-07T16:57:41.976Z,3.63
2023-02-07T17:00:10.536Z,4.93
2023-02-07T17:02:37.912Z,3.60
2023-02-07T17:05:05.563Z,3.80
2023-02-07T17:07:32.960Z,4.00
2023-02-07T17:10:00.321Z,4.50
2023-02-07T17:12:27.699Z,3.97
2023-02-07T17:14:56.393Z,3.88
2023-02-07T17:17:23.844Z,4.13
2023-02-07T17:19:51.248Z,4.32
2023-02-07T17:22:18.616Z,3.83
2023-02-07T17:24:46.488Z,3.85
2023-02-07T17:27:13.847Z,4.40
2023-02-07T17:29:41.273Z,3.85
2023-02-07T17:32:10.557Z,3.92
2023-02-07T17:34:37.993Z,4.30
2023-02-07T17:37:05.362Z,4.53
2023-02-07T17:39:32.724Z,4.00
2023-02-07T17:42:00.115Z,5.63
2023-02-07T17:44:28.546Z,4.28
2023-02-07T17:46:55.923Z,4.07
2023-02-07T17:49:24.618Z,3.92
2023-02-07T17:51:51.990Z,4.28
2023-02-07T17:54:19.409Z,4.03
2023-02-07T17:56:46.786Z,4.03
2023-02-07T17:59:23.891Z,4.03
2023-02-07T18:01:51.410Z,4.75
2023-02-07T18:04:18.798Z,4.38
2023-02-07T18:06:47.824Z,3.72
2023-02-07T18:09:16.526Z,4.10
2023-02-07T18:11:43.909Z,4.05
2023-02-07T18:14:11.414Z,4.32
2023-02-07T18:16:38.786Z,4.10
2023-02-07T18:19:06.167Z,4.05
2023-02-07T18:21:35.683Z,4.93
2023-02-07T18:24:04.768Z,5.95
2023-02-07T18:26:32.143Z,4.85
2023-02-07T18:29:00.192Z,4.22
2023-02-07T18:31:27.741Z,4.25
2023-02-07T18:33:55.287Z,4.82
2023-02-07T18:36:23.391Z,4.55
2023-02-07T18:38:50.819Z,5.43
2023-02-07T18:41:22.962Z,4.93
2023-02-07T18:43:50.377Z,4.85
2023-02-07T18:46:21.193Z,5.85
2023-02-07T18:48:49.526Z,5.47
2023-02-07T18:51:17.198Z,4.95
2023-02-07T18:53:44.627Z,4.72
2023-02-07T18:56:12.755Z,5.65
2023-02-07T18:58:41.427Z,5.07
2023-02-07T19:01:10.179Z,5.05
2023-02-07T19:03:38.329Z,5.28
2023-02-07T19:06:06.851Z,5.60
2023-02-07T19:08:34.264Z,5.25
2023-02-07T19:11:02.910Z,5.55
2023-02-07T19:13:30.348Z,6.38
2023-02-07T19:16:04.416Z,6.00
2023-02-07T19:18:31.864Z,6.20
2023-02-07T19:21:04.786Z,6.38
2023-02-07T19:23:32.187Z,7.25
2023-02-07T19:25:59.555Z,6.57
2023-02-07T19:28:26.960Z,7.10
2023-02-07T19:30:54.425Z,7.10
2023-02-07T19:33:23.136Z,8.32
2023-02-07T19:35:50.618Z,7.18
2023-02-07T19:38:18.000Z,7.35
2023-02-07T19:40:45.414Z,8.00
2023-02-07T19:43:13.004Z,8.52
2023-02-07T19:45:40.389Z,9.98
2023-02-07T19:48:07.754Z,8.65
2023-02-07T19:50:36.831Z,8.82
2023-02-07T19:53:04.557Z,8.70
2023-02-07T19:55:31.953Z,8.00
2023-02-07T19:57:59.581Z,8.77
2023-02-07T20:00:29.349Z,8.18
2023-02-07T20:02:56.730Z,8.23
2023-02-07T20:05:24.109Z,8.23
2023-02-07T20:07:52.800Z,8.00
2023-02-07T20:10:20.266Z,8.77
2023-02-07T20:12:48.254Z,8.52
2023-02-07T20:15:15.654Z,7.57
2023-02-07T20:17:43.043Z,8.05
2023-02-07T20:20:11.292Z,7.88
2023-02-07T20:22:38.697Z,8.52
2023-02-07T20:25:08.618Z,7.70
2023-02-07T20:27:36.002Z,9.05
2023-02-07T20:30:03.391Z,7.13
2023-02-07T20:32:30.870Z,7.30
2023-02-07T20:34:58.308Z,8.30
2023-02-07T20:37:25.700Z,7.70
2023-02-07T20:39:53.097Z,7.50
2023-02-07T20:42:21.798Z,8.63
2023-02-07T20:44:49.694Z,7.68
2023-02-07T20:47:17.079Z,8.32
2023-02-07T20:49:44.456Z,8.82
2023-02-07T20:52:11.812Z,7.03
2023-02-07T20:54:39.345Z,7.20
2023-02-07T20:57:07.700Z,7.47
2023-02-07T20:59:36.436Z,6.32
2023-02-07T21:02:03.875Z,7.40
2023-02-07T21:04:31.356Z,7.10
2023-02-07T21:06:58.734Z,6.88
2023-02-07T21:09:26.415Z,7.43
2023-02-07T21:11:54.208Z,6.93
2023-02-07T21:14:25.446Z,7.10
2023-02-07T21:16:54.246Z,7.13
2023-02-07T21:19:24.532Z,8.05
2023-02-07T21:24:19.364Z,6.22
2023-02-07T21:26:48.057Z,7.40
2023-02-07T21:29:15.505Z,7.22
2023-02-07T21:31:43.149Z,7.25
2023-02-07T21:34:12.968Z,7.53
2023-02-07T21:36:40.382Z,6.82
2023-02-07T21:39:10.418Z,7.45
2023-02-07T21:41:38.563Z,6.85
2023-02-07T21:44:06.128Z,7.25
2023-02-07T21:46:34.247Z,8.18
2023-02-07T21:49:03.224Z,7.07
2023-02-07T21:51:32.838Z,8.40
2023-02-07T21:54:00.350Z,6.88
2023-02-07T21:56:29.155Z,7.45
2023-02-07T21:58:57.178Z,7.45
2023-02-07T22:01:24.633Z,7.38
2023-02-07T22:03:53.083Z,7.57
2023-02-07T22:06:20.987Z,6.68
2023-02-07T22:08:50.772Z,6.78
2023-02-07T22:11:18.562Z,6.80
2023-02-07T22:13:46.082Z,6.50
2023-02-07T22:16:14.346Z,6.97
2023-02-07T22:18:41.783Z,9.13
2023-02-07T22:21:11.007Z,6.80
2023-02-07T22:23:38.376Z,6.57
2023-02-07T22:26:07.071Z,6.38
2023-02-07T22:28:34.530Z,7.88
2023-02-07T22:31:02.053Z,7.38
2023-02-07T22:33:29.472Z,6.63
2023-02-07T22:35:56.853Z,7.13
2023-02-07T22:38:24.219Z,6.78
2023-02-07T22:40:51.626Z,6.80
2023-02-07T22:43:20.319Z,6.32
2023-02-07T22:45:47.740Z,6.88
2023-02-07T22:48:15.651Z,6.20
2023-02-07T22:50:43.064Z,6.60
2023-02-07T22:53:11.453Z,7.32
2023-02-07T22:55:39.827Z,6.90
2023-02-07T22:58:07.260Z,6.72
2023-02-07T23:00:35.984Z,7.40
2023-02-07T23:03:03.360Z,6.70
2023-02-07T23:05:30.770Z,6.82
2023-02-07T23:07:58.156Z,6.78
2023-02-07T23:10:26.216Z,6.78
2023-02-07T23:12:53.633Z,6.55
2023-02-07T23:15:21.187Z,6.43
2023-02-07T23:17:49.893Z,6.45
2023-02-07T23:20:17.274Z,6.80
2023-02-07T23:22:44.671Z,7.35
2023-02-07T23:25:12.066Z,6.95
2023-02-07T23:27:39.478Z,6.63
2023-02-07T23:30:08.394Z,7.32
2023-02-07T23:32:35.787Z,6.60
2023-02-07T23:35:04.577Z,6.53
2023-02-07T23:37:32.049Z,6.63
2023-02-07T23:39:59.463Z,6.47
2023-02-07T23:42:26.840Z,6.57
2023-02-07T23:44:54.388Z,6.28
2023-02-07T23:47:21.822Z,6.75
2023-02-07T23:49:49.226Z,7.53
2023-02-07T23:52:17.926Z,6.70
2023-02-07T23:54:45.318Z,7.07
2023-02-07T23:57:12.713Z,6.88
2023-02-07T23:59:40.113Z,6.20
